Time;durP1;ratioP1;P1;durP2;ratioP2;P2;SDS_P1;SDS_P2;PMS_P1;PMS_P2;Temp;Humidity;BMP_temperature;BMP_pressure;BME280_temperature;BME280_humidity;BME280_pressure;Samples;Min_cycle;Max_cycle;Signal;HPM_P1;HPM_P2
2023/10/12 00:02:04;;;;;;;12.18;5.15;;;14.00;99.90;;;;;;4999871;28;20053;-61
2023/10/12 00:07:42;;;;;;;10.77;5.20;;;13.90;99.90;;;;;;5000764;28;20176;-62
2023/10/12 00:12:46;;;;;;;13.70;4.72;;;13.90;99.90;;;;;;5003583;28;20034;-61
2023/10/12 00:18:08;;;;;;;12.40;6.15;;;13.90;99.90;;;;;;5000599;28;20399;-61
2023/10/12 00:20:39;;;;;;;9.48;5.32;;;13.90;99.90;;;;;;5002300;28;20129;-61
2023/10/12 00:23:09;;;;;;;10.30;5.43;;;13.90;99.90;;;;;;4998916;28;20049;-62
2023/10/12 00:25:46;;;;;;;9.68;5.47;;;13.90;99.90;;;;;;5000593;28;20081;-60
2023/10/12 00:28:17;;;;;;;9.43;5.32;;;13.90;99.90;;;;;;5000846;28;20027;-61
2023/10/12 00:30:43;;;;;;;16.40;5.70;;;13.90;99.90;;;;;;4998843;28;20034;-61
2023/10/12 00:33:09;;;;;;;11.75;6.05;;;13.90;99.90;;;;;;5000228;28;20506;-60
2023/10/12 00:35:37;;;;;;;6.85;5.32;;;13.80;99.90;;;;;;5000924;28;20454;-59
2023/10/12 00:38:17;;;;;;;8.63;5.57;;;13.70;99.90;;;;;;4999321;28;20026;-61
2023/10/12 00:40:57;;;;;;;8.18;5.63;;;13.70;99.90;;;;;;5000009;28;20037;-61
2023/10/12 00:43:36;;;;;;;10.15;4.78;;;13.60;99.90;;;;;;5003567;28;20489;-61
2023/10/12 00:48:50;;;;;;;8.45;5.97;;;13.40;99.90;;;;;;4997445;28;20501;-61
2023/10/12 00:51:17;;;;;;;9.88;5.63;;;13.40;99.90;;;;;;5000055;28;20900;-61
2023/10/12 00:53:56;;;;;;;7.85;5.88;;;13.30;99.90;;;;;;4999885;28;20034;-60
2023/10/12 00:56:30;;;;;;;7.82;5.47;;;13.20;99.90;;;;;;4999446;28;20520;-62
2023/10/12 00:58:57;;;;;;;12.23;5.88;;;13.20;99.90;;;;;;4999168;28;20037;-62
2023/10/12 01:01:23;;;;;;;9.98;5.97;;;13.10;99.90;;;;;;4999134;28;20116;-62
2023/10/12 01:03:52;;;;;;;9.77;5.22;;;13.10;99.90;;;;;;5000413;28;20023;-60
2023/10/12 01:06:20;;;;;;;9.35;6.38;;;13.10;99.90;;;;;;5002840;28;20081;-61
2023/10/12 01:08:47;;;;;;;7.72;5.45;;;13.10;99.90;;;;;;5002191;28;20034;-62
2023/10/12 01:13:54;;;;;;;13.07;5.93;;;13.00;99.90;;;;;;4997884;28;20034;-59
2023/10/12 01:16:23;;;;;;;10.45;5.32;;;13.00;99.90;;;;;;4997430;28;20054;-61
2023/10/12 01:18:55;;;;;;;8.85;5.90;;;13.00;99.90;;;;;;4998555;28;20026;-61
2023/10/12 01:21:21;;;;;;;12.95;5.80;;;12.90;99.90;;;;;;4999361;28;20038;-61
2023/10/12 01:23:50;;;;;;;10.73;6.05;;;12.90;99.90;;;;;;4999780;28;20049;-60
2023/10/12 01:26:19;;;;;;;9.82;5.95;;;12.90;99.90;;;;;;4999516;28;20034;-60
2023/10/12 01:28:49;;;;;;;13.18;5.55;;;12.80;99.90;;;;;;4998559;28;20113;-61
2023/10/12 01:31:26;;;;;;;10.40;5.50;;;12.80;99.90;;;;;;4997590;28;20125;-61
2023/10/12 01:33:55;;;;;;;13.30;5.63;;;12.80;99.90;;;;;;4998692;28;20034;-61
2023/10/12 01:36:22;;;;;;;9.18;5.68;;;12.70;99.90;;;;;;4999773;28;20057;-61
2023/10/12 01:38:50;;;;;;;11.13;5.82;;;12.70;99.90;;;;;;4998313;28;20026;-62
2023/10/12 01:41:25;;;;;;;11.20;6.28;;;12.80;99.90;;;;;;4999308;28;20460;-61
2023/10/12 01:43:52;;;;;;;8.32;5.30;;;12.70;99.90;;;;;;4998626;28;20385;-61
2023/10/12 01:46:21;;;;;;;13.50;5.97;;;12.70;99.90;;;;;;5000677;28;20524;-59
2023/10/12 01:48:49;;;;;;;8.27;5.35;;;12.70;99.90;;;;;;5000141;28;20105;-62
2023/10/12 01:51:17;;;;;;;10.93;5.72;;;12.60;99.90;;;;;;4998885;28;20038;-61
2023/10/12 01:53:43;;;;;;;8.15;6.13;;;12.60;99.90;;;;;;4998649;28;20034;-61
2023/10/12 01:56:11;;;;;;;8.35;5.53;;;12.60;99.90;;;;;;4996621;28;20501;-61
2023/10/12 01:58:40;;;;;;;12.48;6.03;;;12.60;99.90;;;;;;4994752;28;20026;-61
2023/10/12 02:01:07;;;;;;;10.50;5.55;;;12.60;99.90;;;;;;5001352;28;20045;-62
2023/10/12 02:03:42;;;;;;;7.63;5.63;;;12.60;99.90;;;;;;4997715;28;20394;-61
2023/10/12 02:06:14;;;;;;;11.77;5.68;;;12.60;99.90;;;;;;4999402;28;20030;-61
2023/10/12 02:08:45;;;;;;;11.02;6.07;;;12.70;99.90;;;;;;4999939;28;20064;-61
2023/10/12 02:13:41;;;;;;;9.68;5.93;;;12.70;99.90;;;;;;4997630;28;20552;-61
2023/10/12 02:16:11;;;;;;;9.68;5.75;;;12.70;99.90;;;;;;5000198;28;20410;-62
2023/10/12 02:18:38;;;;;;;8.40;5.50;;;12.70;99.90;;;;;;4997382;28;20050;-61
2023/10/12 02:23:54;;;;;;;9.13;5.75;;;12.80;99.90;;;;;;4999624;28;20555;-61
2023/10/12 02:29:11;;;;;;;8.02;5.50;;;12.90;99.90;;;;;;4997019;28;20084;-61
2023/10/12 02:32:17;;;;;;;7.53;6.03;;;12.90;99.90;;;;;;5000143;28;20026;-61
2023/10/12 02:34:43;;;;;;;8.88;5.80;;;12.90;99.90;;;;;;4995947;28;20501;-61
2023/10/12 02:39:39;;;;;;;20.63;6.03;;;12.80;99.90;;;;;;4994968;28;20027;-60
2023/10/12 02:44:57;;;;;;;9.98;5.53;;;12.90;99.90;;;;;;5000148;28;20018;-62
2023/10/12 02:47:33;;;;;;;8.90;6.03;;;13.00;99.90;;;;;;5000277;28;20046;-61
2023/10/12 02:50:27;;;;;;;9.05;5.47;;;13.00;99.90;;;;;;5004433;28;20030;-61
2023/10/12 02:52:47;;;;;;;9.25;5.68;;;13.10;99.90;;;;;;5003314;28;20042;-61
2023/10/12 02:57:54;;;;;;;9.68;6.10;;;13.10;99.90;;;;;;5003416;28;20431;-61
2023/10/12 03:03:25;;;;;;;10.10;5.15;;;13.10;99.90;;;;;;5000796;28;20170;-61
2023/10/12 03:05:58;;;;;;;;;;;13.00;99.90;;;;;;5003539;28;20115;-61
2023/10/12 03:08:30;;;;;;;10.52;5.03;;;13.10;99.90;;;;;;5002041;28;19913;-62
2023/10/12 03:13:26;;;;;;;8.00;4.85;;;13.10;99.90;;;;;;4999028;28;20041;-61
2023/10/12 03:16:03;;;;;;;6.28;5.25;;;13.20;99.90;;;;;;5002202;28;20105;-62
2023/10/12 03:18:29;;;;;;;8.05;6.25;;;13.10;99.90;;;;;;5003709;28;20576;-62
2023/10/12 03:21:05;;;;;;;9.38;5.68;;;13.10;99.90;;;;;;5005048;28;20037;-61
2023/10/12 03:23:34;;;;;;;9.90;5.25;;;13.00;99.90;;;;;;5002414;28;20109;-61
2023/10/12 03:26:49;;;;;;;9.75;5.45;;;13.00;99.90;;;;;;5000672;28;20026;-61
2023/10/12 03:29:43;;;;;;;14.32;5.72;;;13.00;99.90;;;;;;5002418;28;20477;-60
2023/10/12 03:35:13;;;;;;;12.00;5.93;;;13.00;99.90;;;;;;5003114;28;20049;-61
2023/10/12 03:37:14;;;;;;;16.83;6.15;;;13.10;99.90;;;;;;5000483;28;20982;-61
2023/10/12 03:40:49;;;;;;;8.57;5.07;;;13.10;99.90;;;;;;4999993;28;20052;-62
2023/10/12 03:45:08;;;;;;;15.73;6.15;;;13.10;99.90;;;;;;5002803;28;20026;-60
2023/10/12 03:50:22;;;;;;;10.68;5.53;;;13.10;99.90;;;;;;5010259;28;20120;-62
2023/10/12 03:52:52;;;;;;;9.82;5.63;;;13.10;99.90;;;;;;5001020;28;20065;-62
2023/10/12 03:55:27;;;;;;;10.43;5.95;;;13.10;99.90;;;;;;4998568;28;20034;-61
2023/10/12 03:58:00;;;;;;;15.30;5.43;;;13.10;99.90;;;;;;5000630;28;20519;-61
2023/10/12 04:00:34;;;;;;;19.13;6.30;;;13.10;99.90;;;;;;5002125;28;20516;-61
2023/10/12 04:03:10;;;;;;;8.95;5.82;;;13.20;99.90;;;;;;5000380;28;20037;-62
2023/10/12 04:05:44;;;;;;;11.63;4.70;;;13.20;99.90;;;;;;5002508;28;20034;-61
2023/10/12 04:11:21;;;;;;;10.05;5.38;;;13.40;99.90;;;;;;5002121;28;20034;-62
2023/10/12 04:21:22;;;;;;;6.90;5.88;;;13.60;99.90;;;;;;5000574;28;20126;-61
2023/10/12 04:24:24;;;;;;;7.28;5.28;;;13.60;99.90;;;;;;4996882;28;20080;-61
2023/10/12 04:29:00;;;;;;;9.38;6.03;;;13.50;99.90;;;;;;4999148;28;20034;-61
2023/10/12 04:36:35;;;;;;;7.10;5.25;;;13.40;99.90;;;;;;5002743;28;20054;-62
2023/10/12 04:41:42;;;;;;;9.88;5.07;;;13.40;99.90;;;;;;4999902;28;20400;-60
2023/10/12 04:46:59;;;;;;;6.70;5.45;;;13.40;99.90;;;;;;5000646;28;20037;-61
2023/10/12 04:49:54;;;;;;;8.25;6.50;;;13.30;99.90;;;;;;5002932;28;20081;-61
2023/10/12 04:52:17;;;;;;;9.07;5.15;;;13.30;99.90;;;;;;5000102;28;20035;-61
2023/10/12 04:57:31;;;;;;;10.23;5.82;;;13.40;99.90;;;;;;5001863;28;20041;-62
2023/10/12 05:00:10;;;;;;;15.68;5.22;;;13.40;99.90;;;;;;4999652;28;20024;-61
2023/10/12 05:07:55;;;;;;;11.85;5.53;;;13.40;99.90;;;;;;5003335;28;20038;-61
2023/10/12 05:10:41;;;;;;;11.68;5.15;;;13.50;99.90;;;;;;4994362;28;20038;-61
2023/10/12 05:13:10;;;;;;;10.65;4.97;;;13.50;99.90;;;;;;4997641;28;21016;-62
2023/10/12 05:15:46;;;;;;;8.68;5.53;;;13.60;99.90;;;;;;5003035;28;20046;-62
2023/10/12 05:18:13;;;;;;;10.18;5.80;;;13.60;99.90;;;;;;4999537;28;20509;-61
2023/10/12 05:20:42;;;;;;;7.18;5.90;;;13.60;99.90;;;;;;4999895;28;20073;-61
2023/10/12 05:23:09;;;;;;;8.10;5.70;;;13.60;99.90;;;;;;5001055;28;20555;-61
2023/10/12 05:28:18;;;;;;;7.18;4.53;;;13.60;99.90;;;;;;5003317;28;20140;-62
2023/10/12 05:30:50;;;;;;;10.90;5.18;;;13.70;99.90;;;;;;5000983;28;20026;-61
2023/10/12 05:36:08;;;;;;;9.05;5.30;;;13.70;99.90;;;;;;5000908;28;20057;-61
2023/10/12 05:38:38;;;;;;;8.80;5.05;;;13.70;99.90;;;;;;5006975;28;20385;-62
2023/10/12 05:41:08;;;;;;;10.25;5.25;;;13.70;99.90;;;;;;5002244;28;20026;-60
2023/10/12 05:43:36;;;;;;;19.42;6.22;;;13.70;99.90;;;;;;5002344;28;20030;-61
2023/10/12 05:46:10;;;;;;;18.88;6.88;;;13.70;99.90;;;;;;5002516;28;20034;-61
2023/10/12 05:48:45;;;;;;;14.40;6.40;;;13.70;99.90;;;;;;5004558;28;20072;-61
2023/10/12 05:51:18;;;;;;;12.55;6.35;;;13.70;99.90;;;;;;5003178;28;20115;-62
2023/10/12 05:53:44;;;;;;;11.95;6.28;;;13.70;99.90;;;;;;5003965;28;20057;-62
2023/10/12 05:56:10;;;;;;;10.55;5.38;;;13.70;99.90;;;;;;5000722;28;20050;-61
2023/10/12 05:58:38;;;;;;;10.27;5.47;;;13.70;99.90;;;;;;5002267;28;20035;-61
2023/10/12 06:01:12;;;;;;;9.13;6.28;;;13.70;99.90;;;;;;5002542;28;20026;-62
2023/10/12 06:03:46;;;;;;;12.65;7.38;;;13.80;99.90;;;;;;5002956;28;20117;-62
2023/10/12 06:06:12;;;;;;;11.02;7.20;;;13.80;99.90;;;;;;5003111;28;24037;-63
2023/10/12 06:08:39;;;;;;;13.82;7.22;;;13.80;99.90;;;;;;5000038;28;20022;-62
2023/10/12 06:11:07;;;;;;;11.70;7.15;;;13.90;99.90;;;;;;5000844;28;20500;-62
2023/10/12 06:13:41;;;;;;;13.73;7.18;;;13.90;99.90;;;;;;4999830;28;20085;-61
2023/10/12 06:16:14;;;;;;;10.98;6.40;;;13.90;99.90;;;;;;5004436;28;20038;-62
2023/10/12 06:18:46;;;;;;;9.30;7.03;;;13.90;99.90;;;;;;4998553;28;20401;-62
2023/10/12 06:21:18;;;;;;;10.50;5.70;;;14.00;99.90;;;;;;5001593;28;20448;-63
2023/10/12 06:23:51;;;;;;;13.43;5.75;;;14.00;99.90;;;;;;5001503;28;20081;-62
2023/10/12 06:26:29;;;;;;;12.00;5.68;;;14.10;99.90;;;;;;5000296;28;20112;-63
2023/10/12 06:28:59;;;;;;;10.70;5.55;;;14.10;99.90;;;;;;5002905;28;20033;-63
2023/10/12 06:31:31;;;;;;;7.95;5.95;;;14.20;99.90;;;;;;5001177;28;20501;-61
2023/10/12 06:34:04;;;;;;;8.15;5.63;;;14.30;99.90;;;;;;5000623;28;20034;-63
2023/10/12 06:36:38;;;;;;;7.82;4.95;;;14.30;99.90;;;;;;4996745;28;20041;-62
2023/10/12 06:44:34;;;;;;;10.18;5.47;;;14.50;99.90;;;;;;5002516;28;20083;-62
2023/10/12 06:47:24;;;;;;;13.38;6.03;;;14.60;99.90;;;;;;4999723;28;20044;-62
2023/10/12 06:49:49;;;;;;;12.63;7.93;;;14.70;99.90;;;;;;4999347;28;20062;-62
2023/10/12 06:52:19;;;;;;;11.35;7.82;;;14.70;99.90;;;;;;4996747;28;20096;-62
2023/10/12 06:54:54;;;;;;;11.18;6.95;;;14.80;99.90;;;;;;4998901;28;20046;-62
2023/10/12 07:02:34;;;;;;;19.50;9.20;;;14.80;99.90;;;;;;5000308;28;20115;-62
2023/10/12 07:05:04;;;;;;;24.92;9.38;;;14.80;99.90;;;;;;4999859;28;20026;-62
2023/10/12 07:07:36;;;;;;;20.73;9.20;;;14.80;99.90;;;;;;4996575;28;20081;-62
2023/10/12 07:10:27;;;;;;;20.58;9.50;;;14.80;99.90;;;;;;4998102;28;20445;-62
2023/10/12 07:12:53;;;;;;;9.65;7.63;;;14.80;99.90;;;;;;5000329;28;20026;-62
2023/10/12 07:15:22;;;;;;;14.48;7.20;;;14.80;99.90;;;;;;5003582;28;20405;-60
2023/10/12 07:17:51;;;;;;;11.23;7.95;;;14.90;99.90;;;;;;5001966;28;20068;-62
2023/10/12 07:20:40;;;;;;;12.68;7.85;;;14.80;99.90;;;;;;5000035;28;20048;-62
2023/10/12 07:23:16;;;;;;;17.50;7.50;;;14.90;99.90;;;;;;4999838;28;20038;-62
2023/10/12 07:25:48;;;;;;;12.48;7.25;;;14.90;99.90;;;;;;5000551;28;20498;-62
2023/10/12 07:28:19;;;;;;;17.15;8.40;;;15.00;99.90;;;;;;5001323;28;20057;-62
2023/10/12 07:33:31;;;;;;;11.52;7.57;;;15.10;99.90;;;;;;5004052;28;20133;-62
2023/10/12 07:36:07;;;;;;;16.05;7.82;;;15.10;99.90;;;;;;5001652;28;20030;-61
2023/10/12 07:38:35;;;;;;;14.88;8.27;;;15.10;99.90;;;;;;5001616;28;20023;-61
2023/10/12 07:41:03;;;;;;;12.10;7.07;;;15.10;99.90;;;;;;5005065;28;20041;-62
2023/10/12 07:43:32;;;;;;;12.30;7.55;;;15.10;99.90;;;;;;5008970;28;20449;-62
2023/10/12 07:46:13;;;;;;;21.35;6.90;;;15.10;99.90;;;;;;5003421;28;20042;-62
2023/10/12 07:48:42;;;;;;;13.68;6.57;;;15.10;99.90;;;;;;5003947;28;20065;-61
2023/10/12 07:51:24;;;;;;;14.00;7.00;;;15.10;99.90;;;;;;4999609;28;20018;-62
2023/10/12 07:53:57;;;;;;;7.45;6.28;;;15.10;99.90;;;;;;5004386;28;20060;-61
2023/10/12 07:56:33;;;;;;;15.70;6.72;;;15.00;99.90;;;;;;5020082;28;20527;-61
2023/10/12 07:59:00;;;;;;;10.73;6.70;;;15.00;99.90;;;;;;5002998;28;20088;-61
2023/10/12 08:03:59;;;;;;;8.10;6.88;;;15.10;99.90;;;;;;5002586;28;20022;-62
2023/10/12 08:11:56;;;;;;;12.23;6.68;;;15.20;99.90;;;;;;5013819;28;20034;-62
2023/10/12 08:19:39;;;;;;;12.65;8.98;;;15.10;99.90;;;;;;5006493;28;20525;-61
2023/10/12 08:22:17;;;;;;;16.90;9.20;;;15.20;99.90;;;;;;5004155;28;20087;-60
2023/10/12 08:24:45;;;;;;;12.45;9.07;;;15.20;99.90;;;;;;5001415;28;20029;-62
2023/10/12 08:27:12;;;;;;;14.77;8.88;;;15.10;99.90;;;;;;4999216;28;20022;-62
2023/10/12 08:32:11;;;;;;;13.57;8.70;;;15.10;99.90;;;;;;5000981;28;20046;-63
2023/10/12 08:39:38;;;;;;;12.88;8.32;;;15.30;99.90;;;;;;5001883;28;20030;-62
2023/10/12 08:45:17;;;;;;;10.23;8.77;;;15.60;99.90;;;;;;4998853;28;20014;-62
2023/10/12 08:47:50;;;;;;;13.77;9.25;;;15.80;99.90;;;;;;5000834;28;20060;-62
2023/10/12 08:52:50;;;;;;;9.75;7.78;;;16.00;99.90;;;;;;5004509;28;20045;-62
2023/10/12 08:55:24;;;;;;;14.60;9.27;;;16.10;99.90;;;;;;5004067;28;20065;-61
2023/10/12 08:58:11;;;;;;;11.52;8.00;;;16.20;99.90;;;;;;5001744;28;20126;-61
2023/10/12 09:06:01;;;;;;;14.98;8.05;;;16.50;99.90;;;;;;5002665;28;20035;-62
2023/10/12 09:11:02;;;;;;;10.98;8.43;;;16.60;99.90;;;;;;5003278;28;20038;-61
2023/10/12 09:13:29;;;;;;;12.88;9.02;;;16.70;99.90;;;;;;5000250;28;20742;-62
2023/10/12 09:15:56;;;;;;;12.65;8.15;;;16.70;99.90;;;;;;5001178;28;20029;-62
2023/10/12 09:18:30;;;;;;;9.98;7.82;;;16.80;99.90;;;;;;5002114;28;20048;-62
2023/10/12 09:23:33;;;;;;;10.98;8.13;;;16.80;99.90;;;;;;4996951;28;20034;-63
2023/10/12 09:31:15;;;;;;;11.68;6.75;;;16.70;99.90;;;;;;4995790;28;20030;-62
2023/10/12 09:33:45;;;;;;;11.13;6.70;;;16.70;99.90;;;;;;4998708;28;20033;-62
2023/10/12 09:36:11;;;;;;;11.85;8.32;;;16.80;99.90;;;;;;5001449;28;20053;-63
2023/10/12 09:38:38;;;;;;;12.65;7.50;;;16.80;99.90;;;;;;5000418;28;20026;-61
2023/10/12 09:41:08;;;;;;;8.07;6.93;;;16.90;99.90;;;;;;5001221;28;20030;-62
2023/10/12 09:43:40;;;;;;;14.75;7.57;;;17.00;99.90;;;;;;5000600;28;20034;-63
2023/10/12 09:46:09;;;;;;;9.32;7.05;;;17.10;99.90;;;;;;4997869;28;20030;-63
2023/10/12 09:48:38;;;;;;;8.30;7.50;;;17.10;99.90;;;;;;5002687;28;20038;-63
2023/10/12 09:51:15;;;;;;;15.07;7.28;;;17.20;99.90;;;;;;4996995;28;20026;-62
2023/10/12 09:53:53;;;;;;;10.45;7.32;;;17.20;99.90;;;;;;4998155;28;20038;-63
2023/10/12 09:56:26;;;;;;;13.27;8.10;;;17.20;99.90;;;;;;5000714;28;20075;-62
2023/10/12 09:59:02;;;;;;;12.85;6.95;;;17.30;99.90;;;;;;5002738;28;20036;-63
2023/10/12 10:09:38;;;;;;;13.00;6.25;;;17.40;99.90;;;;;;4989333;28;20126;-62
2023/10/12 10:12:07;;;;;;;9.80;5.88;;;17.40;99.90;;;;;;4998824;28;20141;-60
2023/10/12 10:14:35;;;;;;;7.40;5.57;;;17.50;99.90;;;;;;4998025;28;20048;-62
2023/10/12 10:17:01;;;;;;;13.68;5.65;;;17.50;99.90;;;;;;4996494;28;20038;-62
2023/10/12 10:19:30;;;;;;;10.27;5.75;;;17.50;99.90;;;;;;4997318;28;20056;-63
2023/10/12 10:24:58;;;;;;;9.65;6.25;;;17.60;99.90;;;;;;4999507;28;20045;-63
2023/10/12 10:27:34;;;;;;;8.45;5.18;;;17.60;99.90;;;;;;4998123;28;20093;-63
2023/10/12 10:30:23;;;;;;;10.80;6.03;;;17.50;99.90;;;;;;4998224;28;20100;-63
2023/10/12 10:33:12;;;;;;;7.10;5.93;;;17.50;99.90;;;;;;4999792;28;20034;-63
2023/10/12 10:36:00;;;;;;;13.52;7.32;;;17.40;99.90;;;;;;4995769;28;20041;-62
2023/10/12 10:38:32;;;;;;;10.20;6.05;;;17.50;99.90;;;;;;4998900;28;20034;-63
2023/10/12 10:41:07;;;;;;;8.18;7.40;;;17.50;99.90;;;;;;4999025;28;20027;-62
2023/10/12 10:43:37;;;;;;;14.95;7.60;;;17.50;99.90;;;;;;4996830;28;20121;-63
2023/10/12 10:46:06;;;;;;;11.38;7.45;;;17.50;99.90;;;;;;4995995;28;20026;-63
2023/10/12 10:48:38;;;;;;;8.02;7.25;;;17.30;99.90;;;;;;4997678;28;20060;-63
2023/10/12 10:51:28;;;;;;;11.10;8.45;;;17.30;99.90;;;;;;4997697;28;20037;-63
2023/10/12 10:53:53;;;;;;;9.75;8.32;;;17.20;99.90;;;;;;4997898;28;20046;-64
2023/10/12 10:56:36;;;;;;;12.55;8.10;;;17.20;99.90;;;;;;4995818;28;20042;-65
2023/10/12 10:59:05;;;;;;;11.80;8.18;;;17.20;99.90;;;;;;4997928;28;20049;-64
2023/10/12 11:01:31;;;;;;;8.52;7.57;;;17.20;99.90;;;;;;4993117;28;20153;-64
2023/10/12 11:03:58;;;;;;;11.50;7.95;;;17.20;99.90;;;;;;4999074;28;20141;-63
2023/10/12 11:06:27;;;;;;;17.20;8.27;;;17.10;99.90;;;;;;5003887;28;20525;-64
2023/10/12 11:09:07;;;;;;;10.95;8.13;;;17.10;99.90;;;;;;5004825;28;20030;-64
2023/10/12 11:11:44;;;;;;;14.45;7.25;;;17.20;99.90;;;;;;5005541;28;20072;-65
2023/10/12 11:14:14;;;;;;;13.57;7.13;;;17.30;99.90;;;;;;5004689;28;20030;-64
2023/10/12 11:16:43;;;;;;;8.68;6.50;;;17.40;99.90;;;;;;5004024;28;20034;-63
2023/10/12 11:19:09;;;;;;;10.50;6.75;;;17.50;99.90;;;;;;5003805;28;20030;-64
2023/10/12 11:21:35;;;;;;;8.65;6.80;;;17.60;99.90;;;;;;5002033;28;20045;-62
2023/10/12 11:24:03;;;;;;;10.32;6.18;;;17.60;99.90;;;;;;5005175;28;20030;-63
2023/10/12 11:26:38;;;;;;;12.48;5.82;;;17.50;99.90;;;;;;5003568;28;20544;-63
2023/10/12 11:29:11;;;;;;;9.57;6.38;;;17.40;99.90;;;;;;5002320;28;20645;-63
2023/10/12 11:31:37;;;;;;;8.27;6.00;;;17.40;99.90;;;;;;5019791;28;20027;-62
2023/10/12 11:34:12;;;;;;;10.45;5.85;;;17.30;99.90;;;;;;5003358;28;20076;-62
2023/10/12 11:36:38;;;;;;;12.75;6.15;;;17.30;99.90;;;;;;5003993;28;20475;-63
2023/10/12 11:39:16;;;;;;;16.52;5.95;;;17.20;99.90;;;;;;5004626;28;20486;-63
2023/10/12 11:42:01;;;;;;;11.85;7.25;;;17.10;99.90;;;;;;4999688;28;20022;-63
2023/10/12 11:44:35;;;;;;;8.02;5.82;;;16.90;99.90;;;;;;5003560;28;20038;-62
2023/10/12 11:47:02;;;;;;;11.25;7.22;;;16.70;99.90;;;;;;5004275;28;20037;-63
2023/10/12 11:49:32;;;;;;;12.45;6.82;;;16.70;99.90;;;;;;5000178;28;20027;-63
2023/10/12 11:52:13;;;;;;;12.60;6.40;;;16.70;99.90;;;;;;5002205;28;20390;-63
2023/10/12 11:54:39;;;;;;;15.05;6.57;;;16.70;99.90;;;;;;4999842;28;20144;-63
2023/10/12 11:57:06;;;;;;;11.55;6.78;;;16.70;99.90;;;;;;5001383;28;20105;-63
2023/10/12 11:59:35;;;;;;;8.18;6.50;;;16.80;99.90;;;;;;5001881;28;20362;-63
2023/10/12 12:02:08;;;;;;;16.67;7.30;;;16.80;99.90;;;;;;5001725;28;20022;-64
2023/10/12 12:04:40;;;;;;;8.45;6.65;;;16.80;99.90;;;;;;5002208;28;20092;-63
2023/10/12 12:07:10;;;;;;;10.18;6.00;;;16.80;99.90;;;;;;4999475;28;20061;-62
2023/10/12 12:09:39;;;;;;;8.15;6.78;;;16.80;99.90;;;;;;5000153;28;20105;-62
2023/10/12 12:12:07;;;;;;;8.93;6.78;;;16.80;99.90;;;;;;4998769;28;20096;-61
2023/10/12 12:14:33;;;;;;;9.20;7.05;;;16.80;99.90;;;;;;4999810;28;20029;-62
2023/10/12 12:17:01;;;;;;;12.18;7.43;;;16.90;99.90;;;;;;5002556;28;20520;-64
2023/10/12 12:19:26;;;;;;;13.75;6.25;;;16.90;99.90;;;;;;5001066;28;20109;-64
2023/10/12 12:21:53;;;;;;;12.57;7.45;;;16.80;99.90;;;;;;4999447;28;20109;-62
2023/10/12 12:26:52;;;;;;;9.15;6.63;;;16.80;99.90;;;;;;5002246;28;20121;-62
2023/10/12 12:29:21;;;;;;;11.43;6.82;;;16.70;99.90;;;;;;5001391;28;20038;-63
2023/10/12 12:31:48;;;;;;;11.35;7.38;;;16.70;99.90;;;;;;4999336;28;20037;-62
2023/10/12 12:34:33;;;;;;;10.30;7.13;;;16.60;99.90;;;;;;5000918;28;20034;-63
2023/10/12 12:36:59;;;;;;;10.88;7.25;;;16.50;99.90;;;;;;4998046;28;20160;-62
2023/10/12 12:39:32;;;;;;;12.50;6.82;;;16.50;99.90;;;;;;5006829;28;20117;-63
2023/10/12 12:41:57;;;;;;;9.77;6.78;;;16.40;99.90;;;;;;5000826;28;20036;-63
2023/10/12 12:44:23;;;;;;;13.40;9.02;;;16.30;99.90;;;;;;5000919;28;20034;-63
2023/10/12 12:46:48;;;;;;;12.65;8.15;;;16.20;99.90;;;;;;5000123;28;20096;-63
2023/10/12 12:49:14;;;;;;;17.35;10.10;;;16.20;99.90;;;;;;5000388;28;20513;-61
2023/10/12 12:51:40;;;;;;;12.93;9.65;;;16.20;99.90;;;;;;4997993;28;20097;-64
2023/10/12 12:54:06;;;;;;;17.67;10.75;;;16.20;99.90;;;;;;4999558;28;20038;-63
2023/10/12 12:56:31;;;;;;;16.40;10.30;;;16.20;99.90;;;;;;5000504;28;20053;-63
2023/10/12 12:58:57;;;;;;;19.67;9.82;;;16.30;99.90;;;;;;5000300;28;20106;-63
2023/10/12 13:01:23;;;;;;;14.35;8.63;;;16.30;99.90;;;;;;5000696;28;20106;-63
2023/10/12 13:03:55;;;;;;;10.27;8.23;;;16.30;99.90;;;;;;5001727;28;20062;-61
2023/10/12 13:06:21;;;;;;;18.50;9.57;;;16.30;99.90;;;;;;5002381;28;20122;-64
2023/10/12 13:08:46;;;;;;;20.65;8.65;;;16.30;99.90;;;;;;4999875;28;20022;-62
2023/10/12 13:11:20;;;;;;;12.48;9.18;;;16.30;99.90;;;;;;4998232;28;20516;-63
2023/10/12 13:13:47;;;;;;;17.13;8.32;;;16.30;99.90;;;;;;4998390;28;20033;-62
2023/10/12 13:16:14;;;;;;;9.60;7.95;;;16.30;99.90;;;;;;4999724;28;20029;-63
2023/10/12 13:18:45;;;;;;;8.57;7.30;;;16.30;99.90;;;;;;4999301;28;20026;-64
2023/10/12 13:21:14;;;;;;;11.00;8.52;;;16.30;99.90;;;;;;5004851;28;20025;-63
2023/10/12 13:23:40;;;;;;;10.95;8.13;;;16.30;99.90;;;;;;5002237;28;20017;-63
2023/10/12 13:26:07;;;;;;;11.52;7.28;;;16.30;99.90;;;;;;4999723;28;20467;-63
2023/10/12 13:28:33;;;;;;;13.32;7.50;;;16.40;99.90;;;;;;5000583;28;20495;-63
2023/10/12 13:30:59;;;;;;;9.43;8.13;;;16.40;99.90;;;;;;4999602;28;20498;-62
2023/10/12 13:33:27;;;;;;;11.65;8.18;;;16.40;99.90;;;;;;5000262;28;20041;-63
2023/10/12 13:35:55;;;;;;;9.70;7.28;;;16.30;99.90;;;;;;4998400;28;20038;-63
2023/10/12 13:38:21;;;;;;;8.77;7.28;;;16.30;99.90;;;;;;5000196;28;20050;-64
2023/10/12 13:40:48;;;;;;;8.30;7.47;;;16.30;99.90;;;;;;4999612;28;20577;-63
2023/10/12 13:43:14;;;;;;;13.23;7.60;;;16.30;99.90;;;;;;4999825;28;20036;-63
2023/10/12 13:45:48;;;;;;;8.07;7.18;;;16.30;99.90;;;;;;5004235;28;20413;-63
2023/10/12 13:48:37;;;;;;;10.57;8.60;;;16.30;99.90;;;;;;5003222;28;20136;-63
2023/10/12 13:51:04;;;;;;;11.48;7.70;;;16.20;99.90;;;;;;5001640;28;20032;-63
2023/10/12 13:53:36;;;;;;;12.73;9.23;;;16.10;99.90;;;;;;5005083;28;20119;-63
2023/10/12 13:56:09;;;;;;;13.98;10.25;;;16.10;99.90;;;;;;5001025;28;20087;-63
2023/10/12 13:58:36;;;;;;;16.33;10.38;;;16.00;99.90;;;;;;4996583;28;20054;-63
2023/10/12 14:01:13;;;;;;;14.35;9.18;;;15.90;99.90;;;;;;4997742;28;20025;-63
2023/10/12 14:03:41;;;;;;;11.43;9.40;;;15.90;99.90;;;;;;5000237;28;20434;-63
2023/10/12 14:06:07;;;;;;;11.40;10.20;;;15.80;99.90;;;;;;4999049;28;20486;-63
2023/10/12 14:08:40;;;;;;;12.35;9.80;;;15.80;99.90;;;;;;5000211;28;20108;-63
2023/10/12 14:11:07;;;;;;;14.50;10.00;;;15.80;99.90;;;;;;4998066;28;20405;-62
2023/10/12 14:13:33;;;;;;;15.48;10.40;;;15.80;99.90;;;;;;4999287;28;20057;-64
2023/10/12 14:15:59;;;;;;;16.58;10.60;;;15.80;99.90;;;;;;4998016;28;20445;-64
2023/10/12 14:18:30;;;;;;;16.83;10.20;;;15.80;99.90;;;;;;4998135;28;20057;-64
2023/10/12 14:20:57;;;;;;;14.25;9.98;;;15.80;99.90;;;;;;4998716;28;20022;-63
2023/10/12 14:23:38;;;;;;;19.60;11.70;;;15.80;99.90;;;;;;4997761;28;20032;-63
2023/10/12 14:26:04;;;;;;;16.75;10.80;;;15.80;99.90;;;;;;5001013;28;20454;-63
2023/10/12 14:28:34;;;;;;;11.32;9.95;;;15.80;99.90;;;;;;4997906;28;20402;-63
2023/10/12 14:31:00;;;;;;;13.80;11.10;;;15.90;99.90;;;;;;4999123;28;20073;-63
2023/10/12 14:33:30;;;;;;;15.80;9.88;;;15.80;99.90;;;;;;4997919;28;20117;-63
2023/10/12 14:35:56;;;;;;;16.70;11.10;;;15.80;99.90;;;;;;4998371;28;20030;-62
2023/10/12 14:38:22;;;;;;;16.40;12.48;;;15.70;99.90;;;;;;4996354;28;20030;-62
2023/10/12 14:40:48;;;;;;;18.88;13.40;;;15.60;99.90;;;;;;5016634;28;20028;-62
2023/10/12 14:43:15;;;;;;;17.38;13.15;;;15.60;99.90;;;;;;5001351;28;20026;-61
2023/10/12 14:45:48;;;;;;;16.13;13.05;;;15.60;99.90;;;;;;5004270;28;20034;-62
2023/10/12 14:48:16;;;;;;;19.50;14.05;;;15.50;99.90;;;;;;5002536;28;20030;-62
2023/10/12 14:50:50;;;;;;;20.38;14.07;;;15.40;99.90;;;;;;4999631;28;20023;-62
2023/10/12 14:53:20;;;;;;;15.40;13.95;;;15.50;99.90;;;;;;5001812;28;20050;-61
2023/10/12 14:55:52;;;;;;;25.75;15.50;;;15.40;99.90;;;;;;4998986;28;20046;-62
2023/10/12 14:58:19;;;;;;;17.23;15.20;;;15.40;99.90;;;;;;5002050;28;20026;-62
2023/10/12 15:00:45;;;;;;;17.50;15.35;;;15.40;99.90;;;;;;5000881;28;20062;-62
2023/10/12 15:03:21;;;;;;;28.15;15.50;;;15.50;99.90;;;;;;5003746;28;20429;-62
2023/10/12 15:05:55;;;;;;;18.52;15.18;;;15.40;99.90;;;;;;5005791;28;20034;-62
2023/10/12 15:08:22;;;;;;;18.60;13.88;;;15.40;99.90;;;;;;5002814;28;20096;-61
2023/10/12 15:10:48;;;;;;;23.35;15.68;;;15.50;99.90;;;;;;5002152;28;20034;-62
2023/10/12 15:13:16;;;;;;;19.23;13.30;;;15.50;99.90;;;;;;5000322;28;20037;-62
2023/10/12 15:15:45;;;;;;;17.50;14.43;;;15.50;99.90;;;;;;4999914;28;20049;-62
2023/10/12 15:18:12;;;;;;;18.30;13.50;;;15.60;99.90;;;;;;4999944;28;20022;-63
2023/10/12 15:20:38;;;;;;;20.88;12.82;;;15.60;99.90;;;;;;5000897;28;20025;-62
2023/10/12 15:23:04;;;;;;;17.45;13.43;;;15.60;99.90;;;;;;5004676;28;20018;-63
2023/10/12 15:25:30;;;;;;;20.33;13.10;;;15.60;99.90;;;;;;5002437;28;20544;-63
2023/10/12 15:27:56;;;;;;;18.55;13.18;;;15.60;99.90;;;;;;5002948;28;20034;-62